sensor_id;sensor_type;location;lat;lon;timestamp;pressure;altitude;pressure_sealevel;temperature;humidity
80124;BME280;69433;48.642;9.142;2024-03-08T00:04:31;96813.41;;;21.77;34.96
80124;BME280;69433;48.642;9.142;2024-03-08T00:06:56;96808.81;;;21.78;34.78
80124;BME280;69433;48.642;9.142;2024-03-08T00:09:32;96804.22;;;21.78;34.95
80124;BME280;69433;48.642;9.142;2024-03-08T00:15:19;96806.94;;;21.75;34.70
80124;BME280;69433;48.642;9.142;2024-03-08T00:24:27;96803.97;;;21.69;34.96
80124;BME280;69433;48.642;9.142;2024-03-08T00:27:02;96796.34;;;21.68;34.96
80124;BME280;69433;48.642;9.142;2024-03-08T00:29:49;96800.16;;;21.67;34.74
80124;BME280;69433;48.642;9.142;2024-03-08T00:32:14;96794.44;;;21.65;34.77
80124;BME280;69433;48.642;9.142;2024-03-08T00:35:13;96788.75;;;21.63;35.07
80124;BME280;69433;48.642;9.142;2024-03-08T00:37:55;96792.59;;;21.62;35.01
80124;BME280;69433;48.642;9.142;2024-03-08T00:40:53;96787.25;;;21.62;35.08
80124;BME280;69433;48.642;9.142;2024-03-08T00:43:35;96785.38;;;21.59;35.00
80124;BME280;69433;48.642;9.142;2024-03-08T00:46:19;96787.66;;;21.60;34.92
80124;BME280;69433;48.642;9.142;2024-03-08T00:48:45;96781.91;;;21.62;34.79
80124;BME280;69433;48.642;9.142;2024-03-08T00:51:12;96791.03;;;21.64;34.96
80124;BME280;69433;48.642;9.142;2024-03-08T00:53:37;96783.38;;;21.63;34.97
80124;BME280;69433;48.642;9.142;2024-03-08T00:56:05;96782.69;;;21.59;35.05
80124;BME280;69433;48.642;9.142;2024-03-08T00:58:30;96779.25;;;21.58;34.95
80124;BME280;69433;48.642;9.142;2024-03-08T01:00:55;96780.00;;;21.59;34.80
80124;BME280;69433;48.642;9.142;2024-03-08T01:03:44;96770.88;;;21.56;34.86
80124;BME280;69433;48.642;9.142;2024-03-08T01:12:40;96760.53;;;21.58;34.67
80124;BME280;69433;48.642;9.142;2024-03-08T01:15:23;96760.94;;;21.57;34.65
80124;BME280;69433;48.642;9.142;2024-03-08T01:17:49;96750.22;;;21.57;34.79
80124;BME280;69433;48.642;9.142;2024-03-08T01:20:45;96749.88;;;21.55;34.91
80124;BME280;69433;48.642;9.142;2024-03-08T01:23:11;96747.19;;;21.55;35.00
80124;BME280;69433;48.642;9.142;2024-03-08T01:25:47;96748.78;;;21.52;34.91
80124;BME280;69433;48.642;9.142;2024-03-08T01:31:25;96738.84;;;21.53;34.83
80124;BME280;69433;48.642;9.142;2024-03-08T01:40:35;96725.84;;;21.51;34.85
80124;BME280;69433;48.642;9.142;2024-03-08T01:43:24;96719.75;;;21.51;34.98
80124;BME280;69433;48.642;9.142;2024-03-08T01:46:03;96715.56;;;21.50;34.69
80124;BME280;69433;48.642;9.142;2024-03-08T01:55:01;96712.91;;;21.46;34.75
80124;BME280;69433;48.642;9.142;2024-03-08T01:58:03;96707.56;;;21.46;34.80
80124;BME280;69433;48.642;9.142;2024-03-08T02:00:45;96702.63;;;21.44;34.70
80124;BME280;69433;48.642;9.142;2024-03-08T02:03:13;96701.53;;;21.42;34.76
80124;BME280;69433;48.642;9.142;2024-03-08T02:05:57;96691.91;;;21.44;34.80
80124;BME280;69433;48.642;9.142;2024-03-08T02:08:42;96688.16;;;21.42;34.82
80124;BME280;69433;48.642;9.142;2024-03-08T02:11:30;96684.72;;;21.41;34.93
80124;BME280;69433;48.642;9.142;2024-03-08T02:13:55;96683.59;;;21.39;34.83
80124;BME280;69433;48.642;9.142;2024-03-08T02:19:53;96662.19;;;21.39;34.77
80124;BME280;69433;48.642;9.142;2024-03-08T02:22:32;96664.91;;;21.35;34.71
80124;BME280;69433;48.642;9.142;2024-03-08T02:25:33;96664.22;;;21.31;34.82
80124;BME280;69433;48.642;9.142;2024-03-08T02:28:27;96656.13;;;21.35;34.70
80124;BME280;69433;48.642;9.142;2024-03-08T02:30:56;96664.59;;;21.33;34.76
80124;BME280;69433;48.642;9.142;2024-03-08T02:33:27;96659.56;;;21.35;34.77
80124;BME280;69433;48.642;9.142;2024-03-08T02:36:00;96658.06;;;21.34;34.69
80124;BME280;69433;48.642;9.142;2024-03-08T02:38:48;96653.88;;;21.33;34.77
80124;BME280;69433;48.642;9.142;2024-03-08T02:41:20;96652.00;;;21.30;34.48
80124;BME280;69433;48.642;9.142;2024-03-08T02:43:59;96647.03;;;21.32;34.70
80124;BME280;69433;48.642;9.142;2024-03-08T02:56:05;96646.66;;;21.30;34.53
80124;BME280;69433;48.642;9.142;2024-03-08T02:58:51;96645.16;;;21.29;34.52
80124;BME280;69433;48.642;9.142;2024-03-08T03:01:38;96639.03;;;21.29;34.66
80124;BME280;69433;48.642;9.142;2024-03-08T03:04:10;96650.09;;;21.31;34.38
80124;BME280;69433;48.642;9.142;2024-03-08T03:06:35;96640.16;;;21.31;34.35
80124;BME280;69433;48.642;9.142;2024-03-08T03:09:38;96632.13;;;21.31;34.28
80124;BME280;69433;48.642;9.142;2024-03-08T03:12:08;96635.97;;;21.30;34.39
80124;BME280;69433;48.642;9.142;2024-03-08T03:14:36;96639.78;;;21.29;34.38
80124;BME280;69433;48.642;9.142;2024-03-08T03:20:19;96621.88;;;21.26;34.51
80124;BME280;69433;48.642;9.142;2024-03-08T03:29:21;96608.16;;;21.24;34.25
80124;BME280;69433;48.642;9.142;2024-03-08T03:31:55;96610.50;;;21.22;34.47
80124;BME280;69433;48.642;9.142;2024-03-08T03:34:44;96607.47;;;21.20;34.40
80124;BME280;69433;48.642;9.142;2024-03-08T03:37:17;96602.47;;;21.22;34.29
80124;BME280;69433;48.642;9.142;2024-03-08T03:39:54;96597.47;;;21.24;34.53
80124;BME280;69433;48.642;9.142;2024-03-08T03:42:55;96607.00;;;21.25;34.29
80124;BME280;69433;48.642;9.142;2024-03-08T03:45:39;96608.56;;;21.23;34.47
80124;BME280;69433;48.642;9.142;2024-03-08T03:48:20;96612.00;;;21.23;34.21
80124;BME280;69433;48.642;9.142;2024-03-08T03:53:53;96603.22;;;21.23;34.27
80124;BME280;69433;48.642;9.142;2024-03-08T03:56:38;96605.91;;;21.23;34.17
80124;BME280;69433;48.642;9.142;2024-03-08T04:02:44;96605.47;;;21.24;34.16
80124;BME280;69433;48.642;9.142;2024-03-08T04:05:19;96603.16;;;21.26;34.25
80124;BME280;69433;48.642;9.142;2024-03-08T04:08:18;96593.19;;;21.30;34.39
80124;BME280;69433;48.642;9.142;2024-03-08T04:10:44;96593.88;;;21.34;34.18
80124;BME280;69433;48.642;9.142;2024-03-08T04:13:25;96588.78;;;21.43;34.18
80124;BME280;69433;48.642;9.142;2024-03-08T04:15:54;96596.31;;;21.52;34.13
80124;BME280;69433;48.642;9.142;2024-03-08T04:18:23;96597.31;;;21.62;33.87
80124;BME280;69433;48.642;9.142;2024-03-08T04:24:00;96587.78;;;21.84;33.67
80124;BME280;69433;48.642;9.142;2024-03-08T04:26:33;96581.91;;;21.93;33.41
80124;BME280;69433;48.642;9.142;2024-03-08T04:29:06;96583.66;;;22.03;33.23
80124;BME280;69433;48.642;9.142;2024-03-08T04:32:04;96590.41;;;22.11;33.26
80124;BME280;69433;48.642;9.142;2024-03-08T04:37:58;96574.03;;;22.29;32.91
80124;BME280;69433;48.642;9.142;2024-03-08T04:40:40;96581.53;;;22.37;32.81
80124;BME280;69433;48.642;9.142;2024-03-08T04:43:38;96577.19;;;22.43;32.78
80124;BME280;69433;48.642;9.142;2024-03-08T04:49:29;96583.47;;;22.56;32.77
80124;BME280;69433;48.642;9.142;2024-03-08T04:52:25;96574.94;;;22.62;32.42
80124;BME280;69433;48.642;9.142;2024-03-08T04:54:51;96564.16;;;22.65;32.59
80124;BME280;69433;48.642;9.142;2024-03-08T04:57:22;96568.59;;;22.72;32.43
80124;BME280;69433;48.642;9.142;2024-03-08T04:59:47;96563.97;;;22.76;32.27
80124;BME280;69433;48.642;9.142;2024-03-08T05:02:24;96566.16;;;22.81;32.37
80124;BME280;69433;48.642;9.142;2024-03-08T05:04:51;96564.94;;;22.85;32.15
80124;BME280;69433;48.642;9.142;2024-03-08T05:07:32;96562.50;;;22.91;32.15
80124;BME280;69433;48.642;9.142;2024-03-08T05:10:06;96561.69;;;22.94;31.95
80124;BME280;69433;48.642;9.142;2024-03-08T05:12:33;96562.78;;;22.97;31.96
80124;BME280;69433;48.642;9.142;2024-03-08T05:21:31;96557.25;;;23.04;32.05
80124;BME280;69433;48.642;9.142;2024-03-08T05:27:20;96553.31;;;23.08;32.01
80124;BME280;69433;48.642;9.142;2024-03-08T05:30:04;96552.91;;;23.10;31.74
80124;BME280;69433;48.642;9.142;2024-03-08T05:32:59;96552.06;;;23.13;31.89
80124;BME280;69433;48.642;9.142;2024-03-08T05:35:54;96549.41;;;23.13;31.68
80124;BME280;69433;48.642;9.142;2024-03-08T05:38:48;96550.50;;;23.15;31.85
80124;BME280;69433;48.642;9.142;2024-03-08T05:41:23;96552.44;;;23.15;31.82
80124;BME280;69433;48.642;9.142;2024-03-08T05:44:05;96554.69;;;23.16;31.76
80124;BME280;69433;48.642;9.142;2024-03-08T05:46:35;96556.19;;;23.17;31.57
80124;BME280;69433;48.642;9.142;2024-03-08T05:52:23;96552.44;;;23.15;31.74
80124;BME280;69433;48.642;9.142;2024-03-08T05:54:49;96547.06;;;23.15;31.67
80124;BME280;69433;48.642;9.142;2024-03-08T05:57:43;96539.66;;;23.03;31.34
80124;BME280;69433;48.642;9.142;2024-03-08T06:00:09;96550.53;;;22.96;31.24
80124;BME280;69433;48.642;9.142;2024-03-08T06:02:45;96551.22;;;23.00;31.21
80124;BME280;69433;48.642;9.142;2024-03-08T06:08:14;96551.22;;;23.00;31.54
80124;BME280;69433;48.642;9.142;2024-03-08T06:13:46;96550.19;;;22.93;31.49
80124;BME280;69433;48.642;9.142;2024-03-08T06:19:22;96551.59;;;22.82;31.74
80124;BME280;69433;48.642;9.142;2024-03-08T06:27:57;96546.56;;;22.64;31.79
80124;BME280;69433;48.642;9.142;2024-03-08T06:30:25;96546.63;;;22.61;32.06
80124;BME280;69433;48.642;9.142;2024-03-08T06:32:50;96545.19;;;22.56;32.16
80124;BME280;69433;48.642;9.142;2024-03-08T06:35:22;96544.84;;;22.54;32.13
80124;BME280;69433;48.642;9.142;2024-03-08T06:40:50;96551.16;;;22.44;32.35
80124;BME280;69433;48.642;9.142;2024-03-08T06:46:48;96548.69;;;22.33;32.52
80124;BME280;69433;48.642;9.142;2024-03-08T06:49:29;96544.16;;;22.30;32.54
80124;BME280;69433;48.642;9.142;2024-03-08T06:52:11;96541.91;;;22.29;32.63
80124;BME280;69433;48.642;9.142;2024-03-08T06:54:44;96557.28;;;22.25;32.72
80124;BME280;69433;48.642;9.142;2024-03-08T06:57:22;96546.22;;;22.23;32.58
80124;BME280;69433;48.642;9.142;2024-03-08T06:59:49;96548.22;;;22.18;32.69
80124;BME280;69433;48.642;9.142;2024-03-08T07:02:42;96542.09;;;22.18;32.80
80124;BME280;69433;48.642;9.142;2024-03-08T07:05:19;96546.34;;;22.15;32.75
80124;BME280;69433;48.642;9.142;2024-03-08T07:07:46;96545.25;;;22.13;32.82
80124;BME280;69433;48.642;9.142;2024-03-08T07:10:17;96541.88;;;22.09;33.01
80124;BME280;69433;48.642;9.142;2024-03-08T07:16:17;96539.75;;;22.00;33.20
80124;BME280;69433;48.642;9.142;2024-03-08T07:19:03;96539.44;;;21.95;33.48
80124;BME280;69433;48.642;9.142;2024-03-08T07:21:37;96536.41;;;21.93;33.43
80124;BME280;69433;48.642;9.142;2024-03-08T07:24:11;96538.00;;;21.90;33.28
80124;BME280;69433;48.642;9.142;2024-03-08T07:26:48;96538.00;;;21.90;33.53
80124;BME280;69433;48.642;9.142;2024-03-08T07:29:16;96532.19;;;21.92;33.36
80124;BME280;69433;48.642;9.142;2024-03-08T07:38:20;96513.19;;;21.63;32.61
80124;BME280;69433;48.642;9.142;2024-03-08T07:40:49;96513.41;;;21.52;33.03
80124;BME280;69433;48.642;9.142;2024-03-08T07:46:34;96513.34;;;21.32;32.46
80124;BME280;69433;48.642;9.142;2024-03-08T07:49:17;96524.47;;;21.27;32.39
80124;BME280;69433;48.642;9.142;2024-03-08T07:51:52;96521.91;;;21.20;32.20
80124;BME280;69433;48.642;9.142;2024-03-08T07:54:31;96531.09;;;21.16;32.67
80124;BME280;69433;48.642;9.142;2024-03-08T07:56:56;96521.50;;;21.22;32.71
80124;BME280;69433;48.642;9.142;2024-03-08T08:02:43;96515.13;;;21.39;32.60
80124;BME280;69433;48.642;9.142;2024-03-08T08:05:37;96512.75;;;21.44;32.36
80124;BME280;69433;48.642;9.142;2024-03-08T08:11:38;96513.06;;;21.50;33.01
80124;BME280;69433;48.642;9.142;2024-03-08T08:14:32;96508.38;;;21.54;33.18
80124;BME280;69433;48.642;9.142;2024-03-08T08:17:06;96507.13;;;21.62;32.83
80124;BME280;69433;48.642;9.142;2024-03-08T08:19:47;96511.50;;;21.72;32.83
80124;BME280;69433;48.642;9.142;2024-03-08T08:22:23;96505.97;;;21.83;32.51
80124;BME280;69433;48.642;9.142;2024-03-08T08:28:18;96499.72;;;22.13;32.32
80124;BME280;69433;48.642;9.142;2024-03-08T08:30:50;96499.88;;;22.26;32.10
80124;BME280;69433;48.642;9.142;2024-03-08T08:36:29;96499.47;;;22.47;31.99
80124;BME280;69433;48.642;9.142;2024-03-08T08:38:56;96503.09;;;22.56;31.97
80124;BME280;69433;48.642;9.142;2024-03-08T08:41:47;96496.81;;;22.63;31.80
80124;BME280;69433;48.642;9.142;2024-03-08T08:47:41;96500.72;;;22.78;31.83
80124;BME280;69433;48.642;9.142;2024-03-08T08:50:08;96494.91;;;22.83;31.66
80124;BME280;69433;48.642;9.142;2024-03-08T08:52:50;96495.50;;;22.91;31.74
80124;BME280;69433;48.642;9.142;2024-03-08T08:55:16;96495.41;;;22.94;31.62
80124;BME280;69433;48.642;9.142;2024-03-08T09:04:16;96485.22;;;23.06;31.55
80124;BME280;69433;48.642;9.142;2024-03-08T09:06:57;96488.56;;;23.10;31.52
80124;BME280;69433;48.642;9.142;2024-03-08T09:09:23;96478.94;;;23.12;31.35
80124;BME280;69433;48.642;9.142;2024-03-08T09:11:52;96483.00;;;23.17;31.56
80124;BME280;69433;48.642;9.142;2024-03-08T09:14:19;96473.03;;;23.17;31.45
80124;BME280;69433;48.642;9.142;2024-03-08T09:16:51;96481.03;;;23.21;31.21
80124;BME280;69433;48.642;9.142;2024-03-08T09:19:41;96475.25;;;23.22;31.33
80124;BME280;69433;48.642;9.142;2024-03-08T09:22:19;96473.66;;;23.25;31.26
80124;BME280;69433;48.642;9.142;2024-03-08T09:25:15;96472.03;;;23.27;31.43
80124;BME280;69433;48.642;9.142;2024-03-08T09:31:12;96466.25;;;23.29;31.29
80124;BME280;69433;48.642;9.142;2024-03-08T09:33:51;96467.78;;;23.30;31.37
80124;BME280;69433;48.642;9.142;2024-03-08T09:36:44;96461.25;;;23.31;31.37
80124;BME280;69433;48.642;9.142;2024-03-08T09:42:31;96463.91;;;23.31;31.63
80124;BME280;69433;48.642;9.142;2024-03-08T09:45:08;96461.59;;;23.33;31.26
80124;BME280;69433;48.642;9.142;2024-03-08T09:47:50;96461.16;;;23.35;31.29
80124;BME280;69433;48.642;9.142;2024-03-08T09:54:07;96447.00;;;23.34;31.60
80124;BME280;69433;48.642;9.142;2024-03-08T09:56:42;96452.03;;;23.32;31.72
80124;BME280;69433;48.642;9.142;2024-03-08T10:02:31;96444.81;;;23.29;31.66
80124;BME280;69433;48.642;9.142;2024-03-08T10:05:16;96447.50;;;23.29;31.55
80124;BME280;69433;48.642;9.142;2024-03-08T10:08:05;96442.88;;;23.29;31.51
80124;BME280;69433;48.642;9.142;2024-03-08T10:10:34;96435.25;;;23.28;31.90
80124;BME280;69433;48.642;9.142;2024-03-08T10:16:04;96432.75;;;23.21;31.93
80124;BME280;69433;48.642;9.142;2024-03-08T10:21:51;96430.66;;;23.12;32.00
80124;BME280;69433;48.642;9.142;2024-03-08T10:24:48;96425.06;;;23.07;31.93
80124;BME280;69433;48.642;9.142;2024-03-08T10:27:37;96426.97;;;23.06;32.27
80124;BME280;69433;48.642;9.142;2024-03-08T10:30:15;96419.34;;;23.05;32.32
80124;BME280;69433;48.642;9.142;2024-03-08T10:32:47;96419.34;;;23.05;32.10
80124;BME280;69433;48.642;9.142;2024-03-08T10:35:13;96407.88;;;23.04;32.14
80124;BME280;69433;48.642;9.142;2024-03-08T10:41:11;96403.94;;;23.09;32.13
80124;BME280;69433;48.642;9.142;2024-03-08T10:47:26;96399.25;;;23.13;32.22
80124;BME280;69433;48.642;9.142;2024-03-08T10:53:14;96391.84;;;23.17;32.33
80124;BME280;69433;48.642;9.142;2024-03-08T10:55:42;96394.03;;;23.22;32.15
80124;BME280;69433;48.642;9.142;2024-03-08T11:01:30;96386.47;;;23.33;32.02
80124;BME280;69433;48.642;9.142;2024-03-08T11:03:56;96391.66;;;23.40;32.02
80124;BME280;69433;48.642;9.142;2024-03-08T11:09:29;96390.59;;;23.66;31.83
80124;BME280;69433;48.642;9.142;2024-03-08T11:15:16;96384.16;;;23.64;31.54
80124;BME280;69433;48.642;9.142;2024-03-08T11:21:10;96384.94;;;23.77;31.62
80124;BME280;69433;48.642;9.142;2024-03-08T11:27:09;96374.03;;;24.38;30.66
80124;BME280;69433;48.642;9.142;2024-03-08T11:30:10;96367.78;;;24.92;29.39
80124;BME280;69433;48.642;9.142;2024-03-08T11:32:37;96369.81;;;24.75;30.01
80124;BME280;69433;48.642;9.142;2024-03-08T11:38:41;96355.16;;;25.02;29.49
80124;BME280;69433;48.642;9.142;2024-03-08T11:41:20;96343.97;;;25.03;29.75
80124;BME280;69433;48.642;9.142;2024-03-08T11:43:48;96335.38;;;25.08;29.40
80124;BME280;69433;48.642;9.142;2024-03-08T11:46:33;96343.94;;;25.16;29.53
80124;BME280;69433;48.642;9.142;2024-03-08T11:52:25;96341.00;;;25.23;29.11
80124;BME280;69433;48.642;9.142;2024-03-08T11:58:21;96325.31;;;25.22;29.18
80124;BME280;69433;48.642;9.142;2024-03-08T12:00:46;96314.63;;;25.31;29.33
80124;BME280;69433;48.642;9.142;2024-03-08T12:03:19;96314.34;;;25.38;29.22
80124;BME280;69433;48.642;9.142;2024-03-08T12:05:45;96301.47;;;25.33;28.99
80124;BME280;69433;48.642;9.142;2024-03-08T12:08:47;96299.28;;;25.40;29.03
80124;BME280;69433;48.642;9.142;2024-03-08T12:11:17;96299.19;;;25.66;28.83
80124;BME280;69433;48.642;9.142;2024-03-08T12:14:02;96302.38;;;25.73;28.55
80124;BME280;69433;48.642;9.142;2024-03-08T12:23:13;96282.22;;;25.87;28.22
80124;BME280;69433;48.642;9.142;2024-03-08T12:29:23;96285.75;;;26.06;28.45
80124;BME280;69433;48.642;9.142;2024-03-08T12:32:15;96284.00;;;26.12;28.74
80124;BME280;69433;48.642;9.142;2024-03-08T12:35:00;96280.25;;;26.09;28.46
80124;BME280;69433;48.642;9.142;2024-03-08T12:37:45;96273.91;;;25.94;28.63
80124;BME280;69433;48.642;9.142;2024-03-08T12:40:40;96267.41;;;25.82;28.41
80124;BME280;69433;48.642;9.142;2024-03-08T12:43:27;96265.00;;;25.75;28.82
80124;BME280;69433;48.642;9.142;2024-03-08T12:45:56;96266.47;;;25.76;28.79
80124;BME280;69433;48.642;9.142;2024-03-08T12:48:33;96259.94;;;25.86;28.88
80124;BME280;69433;48.642;9.142;2024-03-08T12:51:19;96256.69;;;25.92;29.02
80124;BME280;69433;48.642;9.142;2024-03-08T12:54:02;96247.72;;;25.95;29.18
80124;BME280;69433;48.642;9.142;2024-03-08T12:56:37;96241.59;;;25.94;29.31
80124;BME280;69433;48.642;9.142;2024-03-08T12:59:22;96233.81;;;25.96;29.17
80124;BME280;69433;48.642;9.142;2024-03-08T13:02:02;96234.38;;;25.91;29.22
80124;BME280;69433;48.642;9.142;2024-03-08T13:04:27;96230.94;;;25.91;29.26
80124;BME280;69433;48.642;9.142;2024-03-08T13:06:54;96229.56;;;25.86;29.33
80124;BME280;69433;48.642;9.142;2024-03-08T13:09:22;96221.50;;;25.86;29.67
80124;BME280;69433;48.642;9.142;2024-03-08T13:15:11;96224.88;;;25.46;30.40
80124;BME280;69433;48.642;9.142;2024-03-08T13:18:12;96215.34;;;25.55;30.26
80124;BME280;69433;48.642;9.142;2024-03-08T13:20:43;96202.03;;;25.51;30.12
80124;BME280;69433;48.642;9.142;2024-03-08T13:23:36;96194.81;;;25.48;30.26
80124;BME280;69433;48.642;9.142;2024-03-08T13:29:09;96193.59;;;25.40;30.64
80124;BME280;69433;48.642;9.142;2024-03-08T13:35:16;96188.84;;;25.44;30.55
80124;BME280;69433;48.642;9.142;2024-03-08T13:38:06;96196.47;;;25.45;30.44
80124;BME280;69433;48.642;9.142;2024-03-08T13:40:36;96193.78;;;25.45;30.12
80124;BME280;69433;48.642;9.142;2024-03-08T13:43:02;96184.22;;;25.44;30.27
80124;BME280;69433;48.642;9.142;2024-03-08T13:46:03;96177.63;;;25.45;30.00
80124;BME280;69433;48.642;9.142;2024-03-08T13:48:31;96170.44;;;25.42;30.27
80124;BME280;69433;48.642;9.142;2024-03-08T13:54:19;96162.19;;;25.37;30.42
80124;BME280;69433;48.642;9.142;2024-03-08T13:59:56;96159.19;;;25.35;30.28
80124;BME280;69433;48.642;9.142;2024-03-08T14:02:40;96158.25;;;25.29;30.23
80124;BME280;69433;48.642;9.142;2024-03-08T14:14:58;96147.97;;;25.05;30.65
80124;BME280;69433;48.642;9.142;2024-03-08T14:17:36;96136.16;;;25.03;30.70
80124;BME280;69433;48.642;9.142;2024-03-08T14:20:26;96138.41;;;25.04;30.71
80124;BME280;69433;48.642;9.142;2024-03-08T14:22:58;96126.47;;;25.05;30.76
80124;BME280;69433;48.642;9.142;2024-03-08T14:25:31;96130.97;;;25.08;30.69
80124;BME280;69433;48.642;9.142;2024-03-08T14:28:05;96129.47;;;25.07;30.90
80124;BME280;69433;48.642;9.142;2024-03-08T14:30:39;96128.41;;;25.05;30.96
80124;BME280;69433;48.642;9.142;2024-03-08T14:33:38;96122.38;;;25.01;31.14
80124;BME280;69433;48.642;9.142;2024-03-08T14:36:06;96123.56;;;25.00;30.75
80124;BME280;69433;48.642;9.142;2024-03-08T14:38:55;96104.94;;;24.84;30.84
80124;BME280;69433;48.642;9.142;2024-03-08T14:41:51;96097.81;;;24.68;30.73
80124;BME280;69433;48.642;9.142;2024-03-08T14:44:31;96085.81;;;24.60;30.75
80124;BME280;69433;48.642;9.142;2024-03-08T14:46:59;96097.69;;;24.50;30.51
80124;BME280;69433;48.642;9.142;2024-03-08T14:52:47;96075.72;;;23.95;30.22
80124;BME280;69433;48.642;9.142;2024-03-08T14:58:35;96085.44;;;24.14;30.37
80124;BME280;69433;48.642;9.142;2024-03-08T15:01:15;96083.16;;;24.25;30.16
80124;BME280;69433;48.642;9.142;2024-03-08T15:03:48;96079.94;;;24.30;30.54
80124;BME280;69433;48.642;9.142;2024-03-08T15:06:24;96078.19;;;24.36;30.66
80124;BME280;69433;48.642;9.142;2024-03-08T15:08:50;96068.84;;;24.41;30.68
80124;BME280;69433;48.642;9.142;2024-03-08T15:11:38;96074.06;;;24.45;30.36
80124;BME280;69433;48.642;9.142;2024-03-08T15:17:28;96062.44;;;24.48;30.88
80124;BME280;69433;48.642;9.142;2024-03-08T15:19:55;96053.22;;;24.49;30.54
80124;BME280;69433;48.642;9.142;2024-03-08T15:22:29;96056.22;;;24.51;30.87
80124;BME280;69433;48.642;9.142;2024-03-08T15:25:27;96055.00;;;24.52;30.61
80124;BME280;69433;48.642;9.142;2024-03-08T15:28:02;96041.56;;;24.52;31.02
80124;BME280;69433;48.642;9.142;2024-03-08T15:34:04;96033.81;;;24.54;30.96
80124;BME280;69433;48.642;9.142;2024-03-08T15:37:03;96032.31;;;24.53;31.20
80124;BME280;69433;48.642;9.142;2024-03-08T15:39:37;96021.56;;;24.53;31.15
80124;BME280;69433;48.642;9.142;2024-03-08T15:45:28;96012.47;;;24.50;31.42
80124;BME280;69433;48.642;9.142;2024-03-08T15:48:17;96008.72;;;24.48;31.27
80124;BME280;69433;48.642;9.142;2024-03-08T15:51:17;96011.09;;;24.46;31.18
80124;BME280;69433;48.642;9.142;2024-03-08T15:53:52;96009.72;;;24.41;31.72
80124;BME280;69433;48.642;9.142;2024-03-08T15:59:48;96010.38;;;24.32;31.83
80124;BME280;69433;48.642;9.142;2024-03-08T16:02:23;96000.13;;;24.31;31.99
80124;BME280;69433;48.642;9.142;2024-03-08T16:04:50;96000.53;;;24.29;31.43
80124;BME280;69433;48.642;9.142;2024-03-08T16:07:23;95997.09;;;24.29;31.97
80124;BME280;69433;48.642;9.142;2024-03-08T16:10:00;96000.53;;;24.29;31.79
80124;BME280;69433;48.642;9.142;2024-03-08T16:12:56;95990.97;;;24.28;31.94
80124;BME280;69433;48.642;9.142;2024-03-08T16:15:51;95987.13;;;24.29;32.02
80124;BME280;69433;48.642;9.142;2024-03-08T16:18:19;95987.13;;;24.29;31.68
80124;BME280;69433;48.642;9.142;2024-03-08T16:21:03;95987.88;;;24.30;32.00
80124;BME280;69433;48.642;9.142;2024-03-08T16:23:29;95983.25;;;24.30;32.00
80124;BME280;69433;48.642;9.142;2024-03-08T16:29:14;95975.19;;;24.30;32.19
80124;BME280;69433;48.642;9.142;2024-03-08T16:32:04;95974.00;;;24.31;31.76
80124;BME280;69433;48.642;9.142;2024-03-08T16:34:32;95975.19;;;24.30;31.75
80124;BME280;69433;48.642;9.142;2024-03-08T16:37:05;95975.19;;;24.30;31.72
80124;BME280;69433;48.642;9.142;2024-03-08T16:39:36;95969.50;;;24.28;31.70
80124;BME280;69433;48.642;9.142;2024-03-08T16:42:14;95966.19;;;24.24;31.95
80124;BME280;69433;48.642;9.142;2024-03-08T16:44:43;95957.47;;;24.20;31.99
80124;BME280;69433;48.642;9.142;2024-03-08T16:47:29;95947.59;;;24.17;31.12
80124;BME280;69433;48.642;9.142;2024-03-08T16:53:15;95945.47;;;23.68;31.25
80124;BME280;69433;48.642;9.142;2024-03-08T16:55:47;95938.84;;;23.60;31.24
80124;BME280;69433;48.642;9.142;2024-03-08T16:58:13;95939.59;;;23.61;31.57
80124;BME280;69433;48.642;9.142;2024-03-08T17:03:35;95946.72;;;23.77;31.72
80124;BME280;69433;48.642;9.142;2024-03-08T17:06:12;95940.81;;;23.82;31.95
80124;BME280;69433;48.642;9.142;2024-03-08T17:08:41;95949.03;;;23.87;31.66
80124;BME280;69433;48.642;9.142;2024-03-08T17:11:15;95947.59;;;23.95;31.48
80124;BME280;69433;48.642;9.142;2024-03-08T17:14:17;95947.50;;;23.99;31.77
80124;BME280;69433;48.642;9.142;2024-03-08T17:17:14;95950.19;;;23.99;30.89
80124;BME280;69433;48.642;9.142;2024-03-08T17:19:58;95949.25;;;23.93;30.27
80124;BME280;69433;48.642;9.142;2024-03-08T17:22:33;95949.03;;;23.87;29.80
80124;BME280;69433;48.642;9.142;2024-03-08T17:24:58;95941.25;;;23.80;29.35
80124;BME280;69433;48.642;9.142;2024-03-08T17:27:26;95939.25;;;23.72;29.41
80124;BME280;69433;48.642;9.142;2024-03-08T17:29:55;95939.47;;;23.64;28.59
80124;BME280;69433;48.642;9.142;2024-03-08T17:32:27;95930.47;;;23.58;28.41
80124;BME280;69433;48.642;9.142;2024-03-08T17:35:24;95935.34;;;23.38;27.92
80124;BME280;69433;48.642;9.142;2024-03-08T17:38:07;95927.75;;;23.24;27.59
80124;BME280;69433;48.642;9.142;2024-03-08T17:40:46;95927.34;;;23.13;27.76
80124;BME280;69433;48.642;9.142;2024-03-08T17:43:18;95928.22;;;23.10;28.33
80124;BME280;69433;48.642;9.142;2024-03-08T17:46:05;95923.59;;;23.10;27.82
80124;BME280;69433;48.642;9.142;2024-03-08T17:48:32;95923.91;;;23.12;27.97
80124;BME280;69433;48.642;9.142;2024-03-08T17:51:03;95927.25;;;23.16;28.03
80124;BME280;69433;48.642;9.142;2024-03-08T17:56:55;95930.97;;;23.31;28.07
80124;BME280;69433;48.642;9.142;2024-03-08T17:59:51;95925.78;;;23.37;28.34
80124;BME280;69433;48.642;9.142;2024-03-08T18:02:16;95921.38;;;23.43;28.64
80124;BME280;69433;48.642;9.142;2024-03-08T18:04:48;95913.53;;;23.49;28.70
80124;BME280;69433;48.642;9.142;2024-03-08T18:07:40;95910.75;;;23.52;28.85
80124;BME280;69433;48.642;9.142;2024-03-08T18:10:09;95908.69;;;23.56;28.69
80124;BME280;69433;48.642;9.142;2024-03-08T18:12:45;95905.16;;;23.59;28.56
80124;BME280;69433;48.642;9.142;2024-03-08T18:15:30;95905.78;;;23.63;28.92
80124;BME280;69433;48.642;9.142;2024-03-08T18:18:27;95904.16;;;23.66;28.83
80124;BME280;69433;48.642;9.142;2024-03-08T18:21:26;95908.34;;;23.67;29.20
80124;BME280;69433;48.642;9.142;2024-03-08T18:24:05;95906.81;;;23.66;29.35